Time;durP1;ratioP1;P1;durP2;ratioP2;P2;SDS_P1;SDS_P2;PMS_P1;PMS_P2;Temp;Humidity;BMP_temperature;BMP_pressure;BME280_temperature;BME280_humidity;BME280_pressure;Samples;Min_cycle;Max_cycle;Signal;HPM_P1;HPM_P2
2021/10/05 00:00:52;;;;;;;8.98;0.88;;;;;;;;;;5054316;28;20025;-77
2021/10/05 00:03:17;;;;;;;7.80;0.82;;;;;;;;;;5055553;28;20465;-77
2021/10/05 00:05:43;;;;;;;5.28;0.70;;;;;;;;;;5055526;28;20102;-78
2021/10/05 00:08:08;;;;;;;5.60;0.75;;;;;;;;;;5055577;28;20029;-78
2021/10/05 00:10:33;;;;;;;5.38;0.60;;;;;;;;;;5054693;28;20040;-78
2021/10/05 00:12:59;;;;;;;9.38;0.88;;;;;;;;;;5055242;28;20039;-77
2021/10/05 00:15:24;;;;;;;10.98;0.88;;;;;;;;;;5055315;28;20108;-77
2021/10/05 00:17:49;;;;;;;8.40;0.80;;;;;;;;;;5055215;28;20461;-77
2021/10/05 00:20:15;;;;;;;5.15;0.80;;;;;;;;;;5054950;28;20527;-77
2021/10/05 00:22:41;;;;;;;5.45;0.68;;;;;;;;;;5055261;28;20013;-77
2021/10/05 00:25:06;;;;;;;6.03;1.05;;;;;;;;;;5055203;28;20167;-78
2021/10/05 00:27:32;;;;;;;6.43;0.70;;;;;;;;;;5055086;28;20064;-77
2021/10/05 00:29:57;;;;;;;3.22;0.85;;;;;;;;;;5055145;28;20017;-78
2021/10/05 00:32:22;;;;;;;9.90;0.90;;;;;;;;;;5054725;28;20033;-77
2021/10/05 00:34:49;;;;;;;8.00;0.90;;;;;;;;;;5053396;28;20074;-77
2021/10/05 00:37:14;;;;;;;10.38;1.15;;;;;;;;;;5054975;28;20075;-77
2021/10/05 00:39:39;;;;;;;5.60;0.70;;;;;;;;;;5054721;28;20072;-77
2021/10/05 00:42:04;;;;;;;6.50;0.90;;;;;;;;;;5055118;28;20048;-78
2021/10/05 00:44:37;;;;;;;5.97;0.90;;;;;;;;;;5054784;28;20020;-78
2021/10/05 00:47:10;;;;;;;5.28;0.80;;;;;;;;;;5052311;28;20048;-78
2021/10/05 00:49:35;;;;;;;2.53;0.65;;;;;;;;;;5054367;28;20029;-77
2021/10/05 00:52:01;;;;;;;10.52;1.15;;;;;;;;;;5054791;28;20032;-77
2021/10/05 00:54:27;;;;;;;5.85;0.88;;;;;;;;;;5054615;28;20025;-78
2021/10/05 00:56:52;;;;;;;8.13;0.70;;;;;;;;;;5054581;28;20025;-78
2021/10/05 00:59:17;;;;;;;11.00;1.00;;;;;;;;;;5054413;28;20420;-78
2021/10/05 01:01:43;;;;;;;10.88;0.82;;;;;;;;;;5054437;28;20438;-78
2021/10/05 01:04:08;;;;;;;13.18;1.10;;;;;;;;;;5054180;28;20036;-78
2021/10/05 01:06:33;;;;;;;13.05;1.42;;;;;;;;;;5054307;28;20032;-77
2021/10/05 01:08:59;;;;;;;8.82;0.90;;;;;;;;;;5054317;28;20040;-77
2021/10/05 01:11:24;;;;;;;12.38;1.58;;;;;;;;;;5054231;28;20384;-77
2021/10/05 01:13:49;;;;;;;9.20;1.30;;;;;;;;;;5054253;28;20466;-78
2021/10/05 01:16:18;;;;;;;15.10;1.23;;;;;;;;;;5054160;28;20476;-78
2021/10/05 01:18:46;;;;;;;4.85;1.00;;;;;;;;;;5052784;28;20416;-78
2021/10/05 01:21:11;;;;;;;12.48;1.58;;;;;;;;;;5053830;28;20488;-78
2021/10/05 01:23:37;;;;;;;6.38;1.23;;;;;;;;;;5053770;28;20104;-78
2021/10/05 01:26:02;;;;;;;9.60;1.58;;;;;;;;;;5053699;28;20025;-78
2021/10/05 01:28:28;;;;;;;12.82;2.38;;;;;;;;;;5053890;28;20079;-78
2021/10/05 01:30:53;;;;;;;15.45;1.70;;;;;;;;;;5053269;28;20408;-79
2021/10/05 01:33:26;;;;;;;10.43;1.40;;;;;;;;;;5053590;28;20033;-78
2021/10/05 01:35:52;;;;;;;19.67;1.48;;;;;;;;;;5052447;28;20148;-78
2021/10/05 01:38:17;;;;;;;17.48;1.60;;;;;;;;;;5053741;28;20108;-78
2021/10/05 01:40:42;;;;;;;12.02;1.48;;;;;;;;;;5053748;28;20025;-78
2021/10/05 01:43:07;;;;;;;13.23;1.30;;;;;;;;;;5053973;28;20361;-78
2021/10/05 01:45:33;;;;;;;17.98;1.35;;;;;;;;;;5053404;28;20385;-78
2021/10/05 01:47:59;;;;;;;12.38;1.27;;;;;;;;;;5053675;28;20572;-77
2021/10/05 01:50:27;;;;;;;11.00;1.45;;;;;;;;;;5053647;28;20040;-77
2021/10/05 01:52:52;;;;;;;15.30;1.73;;;;;;;;;;5053615;28;20021;-78
2021/10/05 01:55:17;;;;;;;11.98;2.00;;;;;;;;;;5053599;28;20025;-79
2021/10/05 01:57:42;;;;;;;6.60;1.33;;;;;;;;;;5053831;28;20123;-78
2021/10/05 02:00:08;;;;;;;8.32;1.90;;;;;;;;;;5051881;28;20124;-78
2021/10/05 02:02:34;;;;;;;13.68;1.58;;;;;;;;;;5053266;28;20100;-79
2021/10/05 02:04:59;;;;;;;8.43;1.58;;;;;;;;;;5053352;28;20033;-78
2021/10/05 02:07:24;;;;;;;13.52;1.80;;;;;;;;;;5053188;28;20021;-78
2021/10/05 02:09:49;;;;;;;18.10;2.38;;;;;;;;;;5053627;28;20116;-79
2021/10/05 02:12:16;;;;;;;14.05;1.92;;;;;;;;;;5053349;28;20033;-76
2021/10/05 02:14:45;;;;;;;7.85;1.90;;;;;;;;;;5053215;28;20025;-78
2021/10/05 02:17:10;;;;;;;11.20;1.83;;;;;;;;;;5053406;28;20103;-77
2021/10/05 02:19:36;;;;;;;9.85;1.75;;;;;;;;;;5053237;28;20132;-77
2021/10/05 02:22:01;;;;;;;17.92;2.08;;;;;;;;;;5053196;28;20028;-77
2021/10/05 02:26:52;;;;;;;10.98;1.98;;;;;;;;;;5053164;28;20033;-77
2021/10/05 02:29:18;;;;;;;10.40;2.00;;;;;;;;;;5053308;28;20103;-77
2021/10/05 02:31:44;;;;;;;19.48;1.90;;;;;;;;;;5052879;28;20033;-76
2021/10/05 02:34:09;;;;;;;10.95;1.60;;;;;;;;;;5053641;28;21148;-76
2021/10/05 02:36:34;;;;;;;16.35;2.45;;;;;;;;;;5056036;28;20024;-76
2021/10/05 02:39:00;;;;;;;14.52;1.70;;;;;;;;;;5057113;28;20032;-76
2021/10/05 02:41:25;;;;;;;16.80;3.05;;;;;;;;;;5057115;28;20358;-76
2021/10/05 02:43:51;;;;;;;21.67;1.85;;;;;;;;;;5057233;28;20032;-77
2021/10/05 02:46:16;;;;;;;14.05;2.85;;;;;;;;;;5057083;28;20112;-77
2021/10/05 02:48:41;;;;;;;5.35;1.40;;;;;;;;;;5056964;28;20053;-77
2021/10/05 02:51:06;;;;;;;11.00;2.10;;;;;;;;;;5057310;28;20052;-77
2021/10/05 02:53:32;;;;;;;17.38;2.03;;;;;;;;;;5057011;28;20480;-77
2021/10/05 02:55:57;;;;;;;36.95;2.53;;;;;;;;;;5056621;28;20488;-76
2021/10/05 02:58:22;;;;;;;13.40;2.13;;;;;;;;;;5056884;28;20025;-76
2021/10/05 03:00:48;;;;;;;14.25;2.03;;;;;;;;;;5056401;28;20516;-77
2021/10/05 03:03:13;;;;;;;13.18;2.03;;;;;;;;;;5055660;28;20126;-76
2021/10/05 03:05:38;;;;;;;13.05;2.03;;;;;;;;;;5056299;28;20036;-77
2021/10/05 03:08:05;;;;;;;21.65;2.40;;;;;;;;;;5056568;28;20060;-77
2021/10/05 03:10:30;;;;;;;20.30;2.00;;;;;;;;;;5056566;28;20025;-77
2021/10/05 03:12:55;;;;;;;7.68;1.80;;;;;;;;;;5056525;28;20028;-76
2021/10/05 03:15:21;;;;;;;10.10;2.47;;;;;;;;;;5056409;28;20490;-77
2021/10/05 03:17:46;;;;;;;7.50;2.08;;;;;;;;;;5056404;28;20037;-77
2021/10/05 03:20:11;;;;;;;25.08;2.13;;;;;;;;;;5056483;28;20044;-76
2021/10/05 03:22:36;;;;;;;83.22;4.25;;;;;;;;;;5056371;28;20440;-76
2021/10/05 03:25:02;;;;;;;10.82;1.95;;;;;;;;;;5055076;28;20032;-77
2021/10/05 03:27:27;;;;;;;12.32;2.05;;;;;;;;;;5056291;28;20014;-77
2021/10/05 03:29:52;;;;;;;25.63;3.08;;;;;;;;;;5056060;28;20047;-76
2021/10/05 03:32:18;;;;;;;14.13;2.20;;;;;;;;;;5056308;28;20029;-76
2021/10/05 03:34:43;;;;;;;19.60;2.30;;;;;;;;;;5055695;28;20433;-77
2021/10/05 03:37:08;;;;;;;14.80;2.20;;;;;;;;;;5056177;28;20083;-76
2021/10/05 03:39:34;;;;;;;9.15;1.77;;;;;;;;;;5055957;28;20422;-76
2021/10/05 03:41:59;;;;;;;8.65;1.73;;;;;;;;;;5055365;28;20074;-77
2021/10/05 03:44:24;;;;;;;6.60;2.05;;;;;;;;;;5055992;28;20029;-77
2021/10/05 03:46:50;;;;;;;10.05;1.60;;;;;;;;;;5055709;28;20393;-77
2021/10/05 03:49:15;;;;;;;12.07;1.92;;;;;;;;;;5055935;28;20074;-76
2021/10/05 03:51:43;;;;;;;15.15;2.05;;;;;;;;;;5056101;28;20064;-76
2021/10/05 03:54:08;;;;;;;119.32;4.47;;;;;;;;;;5055646;28;20040;-76
2021/10/05 03:56:33;;;;;;;195.57;5.53;;;;;;;;;;5055718;28;20409;-76
2021/10/05 03:58:59;;;;;;;72.47;3.42;;;;;;;;;;5055551;28;20090;-76
2021/10/05 04:01:24;;;;;;;21.20;1.83;;;;;;;;;;5055402;28;20112;-77
2021/10/05 04:03:49;;;;;;;74.47;3.22;;;;;;;;;;5055940;28;20021;-77
2021/10/05 04:06:14;;;;;;;66.25;2.95;;;;;;;;;;5055425;28;20056;-77
2021/10/05 04:08:40;;;;;;;12.65;1.67;;;;;;;;;;5055290;28;20462;-76
2021/10/05 04:11:05;;;;;;;10.80;1.73;;;;;;;;;;5055130;28;20023;-76
2021/10/05 04:13:31;;;;;;;14.10;1.80;;;;;;;;;;5055193;28;20033;-77
2021/10/05 04:15:56;;;;;;;73.90;3.42;;;;;;;;;;5055350;28;20040;-76
2021/10/05 04:18:21;;;;;;;56.72;2.80;;;;;;;;;;5055161;28;20102;-77
2021/10/05 04:20:46;;;;;;;8.27;2.03;;;;;;;;;;5055244;28;20120;-76
2021/10/05 04:23:12;;;;;;;15.00;2.13;;;;;;;;;;5055252;28;20083;-76
2021/10/05 04:25:37;;;;;;;62.00;3.75;;;;;;;;;;5055179;28;20051;-77
2021/10/05 04:28:02;;;;;;;12.13;2.10;;;;;;;;;;5053823;28;20358;-76
2021/10/05 04:30:28;;;;;;;18.95;2.80;;;;;;;;;;5055334;28;20025;-76
2021/10/05 04:32:53;;;;;;;8.45;2.50;;;;;;;;;;5055086;28;20465;-76
2021/10/05 04:35:18;;;;;;;34.08;3.25;;;;;;;;;;5054922;28;20044;-78
2021/10/05 04:37:44;;;;;;;9.60;2.28;;;;;;;;;;5054965;28;20063;-77
2021/10/05 04:40:09;;;;;;;97.40;3.88;;;;;;;;;;5054451;28;20033;-76
2021/10/05 04:42:35;;;;;;;140.55;4.55;;;;;;;;;;5054763;28;20036;-76
2021/10/05 04:45:00;;;;;;;69.25;2.88;;;;;;;;;;5054783;28;20033;-76
2021/10/05 04:47:26;;;;;;;33.72;2.38;;;;;;;;;;5054722;28;20450;-76
2021/10/05 04:49:51;;;;;;;67.22;3.70;;;;;;;;;;5054650;28;20525;-76
2021/10/05 04:52:16;;;;;;;8.85;2.13;;;;;;;;;;5054708;28;20033;-76
2021/10/05 04:54:42;;;;;;;18.17;2.67;;;;;;;;;;5053279;28;20021;-76
2021/10/05 04:57:07;;;;;;;16.63;2.42;;;;;;;;;;5053656;28;20028;-76
2021/10/05 04:59:33;;;;;;;11.93;3.00;;;;;;;;;;5053129;28;20056;-76
2021/10/05 05:01:58;;;;;;;19.63;3.30;;;;;;;;;;5054435;28;20025;-76
2021/10/05 05:04:23;;;;;;;27.67;3.25;;;;;;;;;;5054714;28;20060;-76
2021/10/05 05:06:49;;;;;;;94.90;4.43;;;;;;;;;;5054489;28;20392;-76
2021/10/05 05:09:14;;;;;;;21.83;2.58;;;;;;;;;;5054379;28;20013;-76
2021/10/05 05:11:40;;;;;;;9.55;2.38;;;;;;;;;;5054404;28;20047;-76
2021/10/05 05:14:07;;;;;;;12.88;2.97;;;;;;;;;;5054041;28;20029;-76
2021/10/05 05:16:33;;;;;;;16.17;3.10;;;;;;;;;;5054211;28;20021;-76
2021/10/05 05:18:58;;;;;;;60.92;4.03;;;;;;;;;;5054126;28;20037;-76
2021/10/05 05:21:24;;;;;;;287.10;10.50;;;;;;;;;;5054174;28;20033;-77
2021/10/05 05:23:50;;;;;;;48.85;4.05;;;;;;;;;;5053790;28;20055;-77
2021/10/05 05:26:15;;;;;;;284.65;9.10;;;;;;;;;;5054104;28;20025;-76
2021/10/05 05:28:41;;;;;;;147.10;6.50;;;;;;;;;;5053894;28;20029;-76
2021/10/05 05:31:06;;;;;;;62.42;4.53;;;;;;;;;;5053737;28;20075;-76
2021/10/05 05:33:31;;;;;;;240.73;8.02;;;;;;;;;;5053832;28;20099;-76
2021/10/05 05:35:56;;;;;;;189.60;6.68;;;;;;;;;;5053360;28;20378;-76
2021/10/05 05:38:23;;;;;;;95.05;4.85;;;;;;;;;;5053766;28;20124;-76
2021/10/05 05:40:48;;;;;;;91.95;5.78;;;;;;;;;;5053825;28;20033;-76
2021/10/05 05:43:14;;;;;;;10.05;2.38;;;;;;;;;;5053719;28;20086;-76
2021/10/05 05:45:39;;;;;;;6.03;2.15;;;;;;;;;;5053674;28;20025;-76
2021/10/05 05:48:04;;;;;;;6.65;1.75;;;;;;;;;;5053701;28;20048;-76
2021/10/05 05:50:30;;;;;;;23.65;3.08;;;;;;;;;;5053900;28;20025;-76
2021/10/05 05:52:55;;;;;;;104.93;4.43;;;;;;;;;;5053591;28;20481;-76
2021/10/05 05:55:21;;;;;;;15.88;2.47;;;;;;;;;;5053597;28;20056;-76
2021/10/05 05:57:48;;;;;;;86.00;4.20;;;;;;;;;;5053525;28;20032;-76
2021/10/05 06:00:14;;;;;;;16.77;2.30;;;;;;;;;;5053829;28;20055;-76
2021/10/05 06:02:39;;;;;;;6.38;2.00;;;;;;;;;;5053328;28;20470;-75
2021/10/05 06:05:05;;;;;;;12.18;2.22;;;;;;;;;;5053252;28;20037;-76
2021/10/05 06:07:30;;;;;;;8.35;2.00;;;;;;;;;;5053621;28;20027;-77
2021/10/05 06:09:55;;;;;;;17.80;2.45;;;;;;;;;;5052438;28;20450;-76
2021/10/05 06:12:21;;;;;;;6.78;1.67;;;;;;;;;;5053420;28;20028;-76
2021/10/05 06:14:47;;;;;;;8.20;2.20;;;;;;;;;;5053233;28;20086;-76
2021/10/05 06:17:12;;;;;;;8.95;1.85;;;;;;;;;;5053330;28;20420;-76
2021/10/05 06:19:37;;;;;;;10.35;1.98;;;;;;;;;;5052920;28;20047;-76
2021/10/05 06:22:03;;;;;;;4.78;1.60;;;;;;;;;;5053028;28;20017;-76
2021/10/05 06:24:28;;;;;;;5.55;1.95;;;;;;;;;;5053193;28;20036;-76
2021/10/05 06:26:53;;;;;;;35.00;2.65;;;;;;;;;;5053228;28;20033;-76
2021/10/05 06:29:19;;;;;;;4.85;1.75;;;;;;;;;;5053207;28;20066;-76
2021/10/05 06:31:45;;;;;;;9.40;1.58;;;;;;;;;;5053063;28;20048;-76
2021/10/05 06:34:10;;;;;;;9.48;1.88;;;;;;;;;;5051842;28;20397;-75
2021/10/05 06:36:35;;;;;;;26.98;2.40;;;;;;;;;;5052944;28;20474;-75
2021/10/05 06:39:01;;;;;;;6.57;1.50;;;;;;;;;;5053040;28;20081;-76
2021/10/05 06:41:26;;;;;;;5.70;1.45;;;;;;;;;;5052789;28;20021;-76
2021/10/05 06:43:51;;;;;;;9.90;1.67;;;;;;;;;;5052241;28;20022;-75
2021/10/05 06:46:17;;;;;;;37.78;2.83;;;;;;;;;;5053594;28;20413;-75
2021/10/05 06:48:42;;;;;;;3.30;1.30;;;;;;;;;;5053180;28;20028;-76
2021/10/05 06:51:07;;;;;;;5.25;1.92;;;;;;;;;;5052807;28;20025;-76
2021/10/05 06:53:33;;;;;;;6.22;1.50;;;;;;;;;;5053510;28;20059;-76
2021/10/05 06:55:58;;;;;;;5.40;2.00;;;;;;;;;;5053175;28;20063;-76
2021/10/05 06:58:23;;;;;;;4.72;1.77;;;;;;;;;;5053174;28;20107;-75
2021/10/05 07:00:49;;;;;;;6.65;1.85;;;;;;;;;;5052855;28;20033;-76
2021/10/05 07:03:14;;;;;;;4.22;1.85;;;;;;;;;;5053066;28;20095;-76
2021/10/05 07:05:40;;;;;;;8.40;2.10;;;;;;;;;;5053134;28;20071;-76
2021/10/05 07:08:09;;;;;;;7.97;1.95;;;;;;;;;;5053157;28;20033;-76
2021/10/05 07:10:35;;;;;;;5.32;1.58;;;;;;;;;;5052835;28;20025;-77
2021/10/05 07:13:01;;;;;;;8.07;1.67;;;;;;;;;;5052848;28;20021;-77
2021/10/05 07:15:27;;;;;;;381.08;17.00;;;;;;;;;;5052778;28;20381;-77
2021/10/05 07:17:53;;;;;;;142.27;6.85;;;;;;;;;;5052759;28;20029;-77
2021/10/05 07:20:18;;;;;;;9.32;1.42;;;;;;;;;;5053668;28;20040;-78
2021/10/05 07:22:43;;;;;;;5.38;1.13;;;;;;;;;;5056428;28;20037;-77
2021/10/05 07:25:09;;;;;;;4.85;1.50;;;;;;;;;;5056825;28;20114;-76
2021/10/05 07:27:34;;;;;;;15.63;2.08;;;;;;;;;;5056561;28;20142;-76
2021/10/05 07:30:02;;;;;;;4.22;1.13;;;;;;;;;;5056390;28;20065;-76
2021/10/05 07:32:28;;;;;;;4.32;1.08;;;;;;;;;;5056202;28;20115;-77
2021/10/05 07:34:53;;;;;;;6.07;1.23;;;;;;;;;;5056125;28;20076;-76
2021/10/05 07:37:19;;;;;;;2.20;1.02;;;;;;;;;;5056268;28;20029;-76
2021/10/05 07:39:44;;;;;;;1.15;0.90;;;;;;;;;;5056157;28;20090;-76
2021/10/05 07:42:09;;;;;;;6.57;1.10;;;;;;;;;;5056475;28;20418;-76
2021/10/05 07:44:34;;;;;;;3.95;1.00;;;;;;;;;;5056123;28;20025;-77
2021/10/05 07:47:01;;;;;;;3.67;1.00;;;;;;;;;;5055420;28;20033;-77
2021/10/05 07:49:26;;;;;;;5.90;0.98;;;;;;;;;;5054925;28;20466;-77
2021/10/05 07:51:51;;;;;;;1.88;0.80;;;;;;;;;;5055704;28;20028;-77
2021/10/05 07:54:17;;;;;;;5.35;1.02;;;;;;;;;;5055806;28;20167;-76
2021/10/05 07:56:42;;;;;;;3.08;0.90;;;;;;;;;;5055459;28;20024;-77
2021/10/05 07:59:07;;;;;;;2.90;0.73;;;;;;;;;;5054825;28;20041;-77
2021/10/05 08:01:35;;;;;;;1.83;0.80;;;;;;;;;;5049582;28;20481;-77
2021/10/05 08:04:01;;;;;;;1.45;0.57;;;;;;;;;;5051995;28;20385;-77
2021/10/05 08:06:26;;;;;;;2.10;0.95;;;;;;;;;;5051953;28;20025;-77
2021/10/05 08:08:51;;;;;;;2.83;0.82;;;;;;;;;;5051487;28;20025;-77
2021/10/05 08:11:19;;;;;;;1.23;0.57;;;;;;;;;;5052314;28;20021;-77
2021/10/05 08:13:44;;;;;;;1.67;0.77;;;;;;;;;;5050349;28;20017;-78
2021/10/05 08:16:09;;;;;;;2.50;0.77;;;;;;;;;;5051604;28;20124;-78
2021/10/05 08:18:34;;;;;;;1.50;1.00;;;;;;;;;;5051197;28;20024;-77
2021/10/05 08:21:00;;;;;;;1.38;0.40;;;;;;;;;;5050494;28;20033;-79
2021/10/05 08:23:25;;;;;;;2.25;0.55;;;;;;;;;;5051710;28;20032;-78
2021/10/05 08:25:50;;;;;;;0.93;0.60;;;;;;;;;;5051324;28;20374;-78
2021/10/05 08:28:15;;;;;;;2.05;0.55;;;;;;;;;;5051256;28;20025;-79
2021/10/05 08:30:41;;;;;;;1.70;0.60;;;;;;;;;;5051102;28;20091;-78
2021/10/05 08:33:07;;;;;;;2.13;0.40;;;;;;;;;;5050776;28;20021;-77
2021/10/05 08:35:32;;;;;;;3.15;0.43;;;;;;;;;;5050455;28;20127;-80
2021/10/05 08:37:58;;;;;;;2.72;0.65;;;;;;;;;;5051590;28;20040;-77
2021/10/05 08:40:24;;;;;;;2.75;0.35;;;;;;;;;;5050799;28;20060;-78
2021/10/05 08:42:50;;;;;;;1.95;0.70;;;;;;;;;;5050632;28;20033;-77
2021/10/05 08:45:16;;;;;;;0.30;0.30;;;;;;;;;;5051119;28;20094;-77
2021/10/05 08:47:41;;;;;;;1.38;0.30;;;;;;;;;;5046392;28;20033;-76
2021/10/05 08:50:08;;;;;;;1.30;0.30;;;;;;;;;;5050036;28;20041;-78
2021/10/05 08:52:33;;;;;;;3.58;0.40;;;;;;;;;;5048981;28;20656;-77
2021/10/05 08:54:59;;;;;;;1.08;0.30;;;;;;;;;;5050497;28;20127;-77
2021/10/05 08:57:24;;;;;;;1.73;0.30;;;;;;;;;;5050810;28;20029;-77
2021/10/05 08:59:50;;;;;;;0.70;0.30;;;;;;;;;;5050225;28;20126;-77
2021/10/05 09:02:17;;;;;;;1.98;0.30;;;;;;;;;;5049813;28;20453;-79
2021/10/05 09:04:43;;;;;;;1.33;0.30;;;;;;;;;;5051379;28;20033;-77
2021/10/05 09:07:19;;;;;;;2.53;0.35;;;;;;;;;;5050778;28;20844;-78
2021/10/05 09:10:02;;;;;;;3.38;0.40;;;;;;;;;;5050886;28;20044;-78
2021/10/05 09:12:32;;;;;;;0.30;0.20;;;;;;;;;;5050083;28;20175;-78
2021/10/05 09:14:57;;;;;;;0.45;0.20;;;;;;;;;;5051048;28;20060;-77
2021/10/05 09:17:24;;;;;;;4.13;0.32;;;;;;;;;;5051151;28;20441;-78
2021/10/05 09:19:50;;;;;;;1.45;0.63;;;;;;;;;;5050743;28;20473;-77
2021/10/05 09:22:17;;;;;;;3.00;0.32;;;;;;;;;;5049995;28;20496;-77
2021/10/05 09:24:44;;;;;;;3.38;0.40;;;;;;;;;;5050689;28;20108;-77
2021/10/05 09:27:09;;;;;;;1.92;0.60;;;;;;;;;;5050572;28;20025;-78
2021/10/05 09:29:39;;;;;;;0.90;0.40;;;;;;;;;;5050047;28;20040;-77
2021/10/05 09:32:14;;;;;;;5.05;0.60;;;;;;;;;;5050369;28;20045;-78
2021/10/05 09:34:39;;;;;;;;;;;;;;;;;;5050633;28;20044;-78
2021/10/05 09:37:08;;;;;;;0.83;0.33;;;;;;;;;;5049636;28;20384;-78
2021/10/05 09:39:42;;;;;;;1.13;0.45;;;;;;;;;;5050942;28;20294;-79
2021/10/05 09:42:08;;;;;;;3.50;0.70;;;;;;;;;;5050170;28;20055;-78
2021/10/05 09:44:33;;;;;;;1.65;0.30;;;;;;;;;;5050438;28;20040;-78
2021/10/05 09:46:59;;;;;;;2.42;0.47;;;;;;;;;;5050300;28;20017;-78
2021/10/05 09:49:24;;;;;;;1.98;0.50;;;;;;;;;;5049813;28;20033;-78
2021/10/05 09:51:59;;;;;;;3.42;0.63;;;;;;;;;;5049985;28;20099;-78
2021/10/05 09:54:24;;;;;;;;;;;;;;;;;;5050514;28;20028;-78
2021/10/05 09:56:49;;;;;;;1.98;0.73;;;;;;;;;;5049688;28;19982;-78
2021/10/05 09:59:15;;;;;;;1.63;0.30;;;;;;;;;;5049384;28;20378;-78
2021/10/05 10:01:40;;;;;;;1.05;0.50;;;;;;;;;;5050196;28;20033;-78
2021/10/05 10:04:06;;;;;;;3.20;0.57;;;;;;;;;;5049594;28;20024;-78
2021/10/05 10:06:31;;;;;;;3.38;0.50;;;;;;;;;;5049271;28;20040;-78
2021/10/05 10:08:57;;;;;;;2.08;0.55;;;;;;;;;;5049620;28;20051;-79
2021/10/05 10:11:24;;;;;;;2.70;0.60;;;;;;;;;;5049443;28;20025;-78
2021/10/05 10:13:50;;;;;;;2.65;0.60;;;;;;;;;;5049326;28;20072;-79
2021/10/05 10:16:16;;;;;;;4.75;0.38;;;;;;;;;;5050050;28;20060;-78
2021/10/05 10:18:52;;;;;;;2.25;0.40;;;;;;;;;;5046442;28;20032;-78
2021/10/05 10:21:23;;;;;;;2.90;0.55;;;;;;;;;;5049805;28;20037;-78
2021/10/05 10:23:49;;;;;;;3.63;0.52;;;;;;;;;;5049937;28;20024;-78
2021/10/05 10:26:18;;;;;;;0.77;0.38;;;;;;;;;;5049374;28;20041;-78
2021/10/05 10:28:46;;;;;;;2.08;0.40;;;;;;;;;;5049653;28;20366;-78
2021/10/05 10:31:29;;;;;;;1.33;0.40;;;;;;;;;;5049167;28;20017;-78
2021/10/05 10:33:54;;;;;;;4.38;0.60;;;;;;;;;;5049731;28;20040;-78
2021/10/05 10:36:32;;;;;;;1.33;0.50;;;;;;;;;;5049466;28;20017;-78
2021/10/05 10:39:03;;;;;;;2.13;0.75;;;;;;;;;;5050599;28;20120;-78
2021/10/05 10:41:28;;;;;;;2.83;0.60;;;;;;;;;;5050401;28;20457;-78
2021/10/05 10:43:58;;;;;;;2.35;0.68;;;;;;;;;;5050002;28;20082;-78
2021/10/05 10:46:25;;;;;;;3.53;0.55;;;;;;;;;;5050222;28;20048;-78
2021/10/05 10:48:54;;;;;;;2.95;0.82;;;;;;;;;;5050123;28;20346;-78
2021/10/05 10:51:27;;;;;;;5.15;0.80;;;;;;;;;;5049473;28;20040;-78
2021/10/05 10:53:52;;;;;;;4.18;0.50;;;;;;;;;;5049681;28;20025;-78
2021/10/05 10:56:31;;;;;;;4.25;0.77;;;;;;;;;;5051960;28;20531;-78
2021/10/05 10:59:03;;;;;;;2.20;0.70;;;;;;;;;;5053552;28;20079;-78
2021/10/05 11:01:40;;;;;;;3.45;0.68;;;;;;;;;;5053109;28;20497;-79
2021/10/05 11:04:06;;;;;;;2.70;0.60;;;;;;;;;;5053779;28;20056;-79
2021/10/05 11:06:31;;;;;;;2.88;0.80;;;;;;;;;;5052229;28;20397;-78
2021/10/05 11:08:57;;;;;;;3.72;0.93;;;;;;;;;;5052877;28;20013;-78
2021/10/05 11:11:36;;;;;;;5.15;0.70;;;;;;;;;;5052716;28;20029;-78
2021/10/05 11:14:04;;;;;;;2.63;0.60;;;;;;;;;;5052917;28;20040;-78
2021/10/05 11:16:30;;;;;;;1.88;0.63;;;;;;;;;;5053180;28;20029;-78
2021/10/05 11:19:03;;;;;;;1.40;0.50;;;;;;;;;;5052633;28;20036;-78
2021/10/05 11:21:31;;;;;;;6.50;0.63;;;;;;;;;;5052384;28;20350;-79
2021/10/05 11:23:57;;;;;;;5.38;0.90;;;;;;;;;;5052890;28;20082;-78
2021/10/05 11:26:29;;;;;;;5.25;1.33;;;;;;;;;;5053722;28;20037;-79
2021/10/05 11:28:54;;;;;;;6.10;0.60;;;;;;;;;;5052652;28;20018;-78
2021/10/05 11:31:19;;;;;;;1.95;0.30;;;;;;;;;;5052636;28;20480;-78
2021/10/05 11:33:46;;;;;;;4.22;1.00;;;;;;;;;;5051969;28;20025;-78
2021/10/05 11:36:11;;;;;;;6.00;0.60;;;;;;;;;;5052307;28;20048;-77
2021/10/05 11:38:41;;;;;;;1.35;0.30;;;;;;;;;;5052151;28;20037;-78
2021/10/05 11:41:06;;;;;;;1.33;0.50;;;;;;;;;;5051654;28;20510;-78
2021/10/05 11:43:52;;;;;;;2.63;0.50;;;;;;;;;;5052319;28;20053;-79
2021/10/05 11:46:18;;;;;;;2.38;0.57;;;;;;;;;;5051692;28;20130;-77
2021/10/05 11:48:45;;;;;;;3.72;0.55;;;;;;;;;;5050540;28;20044;-78
2021/10/05 11:51:11;;;;;;;6.43;0.80;;;;;;;;;;5051831;28;20021;-78
2021/10/05 11:53:36;;;;;;;2.50;0.68;;;;;;;;;;5052478;28;20036;-80
2021/10/05 11:56:12;;;;;;;5.15;0.75;;;;;;;;;;5052430;28;20508;-78
2021/10/05 11:58:47;;;;;;;4.68;0.63;;;;;;;;;;5049378;28;20079;-79
2021/10/05 12:01:16;;;;;;;5.68;0.63;;;;;;;;;;5050903;28;20033;-78
2021/10/05 12:03:42;;;;;;;3.88;1.10;;;;;;;;;;5051388;28;20029;-79
2021/10/05 12:06:07;;;;;;;3.35;0.75;;;;;;;;;;5052054;28;20082;-78
2021/10/05 12:08:32;;;;;;;3.25;0.68;;;;;;;;;;5051391;28;20429;-78
2021/10/05 12:10:58;;;;;;;4.05;0.50;;;;;;;;;;5051207;28;20045;-78
2021/10/05 12:13:23;;;;;;;3.60;0.80;;;;;;;;;;5051435;28;20068;-78
2021/10/05 12:15:48;;;;;;;10.00;1.95;;;;;;;;;;5051999;28;20017;-79
2021/10/05 12:18:14;;;;;;;5.30;1.08;;;;;;;;;;5064186;28;20522;-77
2021/10/05 12:20:39;;;;;;;8.52;1.10;;;;;;;;;;5070943;28;20051;-78
2021/10/05 12:23:08;;;;;;;5.03;0.90;;;;;;;;;;5070587;28;20027;-78
2021/10/05 12:25:37;;;;;;;7.43;1.13;;;;;;;;;;5071195;28;20028;-79
2021/10/05 12:28:05;;;;;;;5.18;1.02;;;;;;;;;;5054868;28;20032;-79
2021/10/05 12:30:31;;;;;;;3.45;0.88;;;;;;;;;;5065326;28;20013;-78
2021/10/05 12:32:58;;;;;;;6.43;1.23;;;;;;;;;;5060367;28;20464;-79
2021/10/05 12:35:27;;;;;;;7.68;1.00;;;;;;;;;;5057648;28;20523;-78
2021/10/05 12:38:22;;;;;;;5.40;0.90;;;;;;;;;;5067918;28;20028;-78
2021/10/05 12:40:55;;;;;;;3.55;1.58;;;;;;;;;;5051040;28;20500;-79
2021/10/05 12:43:36;;;;;;;6.38;1.30;;;;;;;;;;5056811;28;20029;-78
2021/10/05 12:46:04;;;;;;;4.38;0.85;;;;;;;;;;5067218;28;20020;-79
2021/10/05 12:48:39;;;;;;;5.57;1.20;;;;;;;;;;5057626;28;20036;-78
2021/10/05 12:51:15;;;;;;;4.95;1.10;;;;;;;;;;5059511;28;20052;-79
2021/10/05 12:53:44;;;;;;;4.32;0.90;;;;;;;;;;5066284;28;20112;-78
2021/10/05 12:56:10;;;;;;;5.35;1.00;;;;;;;;;;5031107;28;20112;-79
2021/10/05 12:58:36;;;;;;;6.03;1.05;;;;;;;;;;5031235;28;20439;-78
2021/10/05 13:01:02;;;;;;;3.08;1.10;;;;;;;;;;5031180;28;20104;-78
2021/10/05 13:03:28;;;;;;;5.55;0.80;;;;;;;;;;5029957;28;20105;-79
2021/10/05 13:05:53;;;;;;;1.65;0.63;;;;;;;;;;5044089;28;20033;-78
2021/10/05 13:08:18;;;;;;;4.07;0.65;;;;;;;;;;5070197;28;20055;-79
2021/10/05 13:10:43;;;;;;;6.00;0.93;;;;;;;;;;5070645;28;20025;-80
2021/10/05 13:13:09;;;;;;;5.30;0.77;;;;;;;;;;5060182;28;20024;-79
2021/10/05 13:15:34;;;;;;;5.07;0.82;;;;;;;;;;5050515;28;20385;-78
2021/10/05 13:17:59;;;;;;;4.60;0.90;;;;;;;;;;5049609;28;20472;-79
2021/10/05 13:20:25;;;;;;;6.07;1.00;;;;;;;;;;5050275;28;20082;-79
2021/10/05 13:22:50;;;;;;;4.78;1.17;;;;;;;;;;5049939;28;20438;-79
2021/10/05 13:25:16;;;;;;;5.38;0.85;;;;;;;;;;5050575;28;20021;-78
2021/10/05 13:27:41;;;;;;;6.07;0.90;;;;;;;;;;5050174;28;20465;-78
2021/10/05 13:30:08;;;;;;;3.25;0.60;;;;;;;;;;5050450;28;20021;-78
2021/10/05 13:32:34;;;;;;;2.38;0.80;;;;;;;;;;5049863;28;20029;-78
2021/10/05 13:34:59;;;;;;;7.95;0.90;;;;;;;;;;5049868;28;20045;-78
2021/10/05 13:37:25;;;;;;;4.72;0.73;;;;;;;;;;5050651;28;20349;-78
2021/10/05 13:39:50;;;;;;;2.40;0.80;;;;;;;;;;5049937;28;20059;-78
2021/10/05 13:42:15;;;;;;;4.78;0.80;;;;;;;;;;5049917;28;20057;-78
2021/10/05 13:44:41;;;;;;;2.97;0.55;;;;;;;;;;5049068;28;20496;-78
2021/10/05 13:47:06;;;;;;;3.75;0.88;;;;;;;;;;5048545;28;20071;-78
2021/10/05 13:49:31;;;;;;;4.90;0.75;;;;;;;;;;5050254;28;20488;-80
2021/10/05 13:51:56;;;;;;;2.55;0.68;;;;;;;;;;5050045;28;20074;-78
2021/10/05 13:54:22;;;;;;;3.63;1.15;;;;;;;;;;5049026;28;20029;-80
2021/10/05 13:56:47;;;;;;;4.32;0.60;;;;;;;;;;5049216;28;20434;-78
2021/10/05 13:59:12;;;;;;;6.60;1.10;;;;;;;;;;5049355;28;20037;-78
2021/10/05 14:01:38;;;;;;;3.75;0.60;;;;;;;;;;5049476;28;20091;-79
2021/10/05 14:04:04;;;;;;;1.90;0.93;;;;;;;;;;5049824;28;20068;-78
2021/10/05 14:06:29;;;;;;;4.38;0.80;;;;;;;;;;5049600;28;20309;-78
2021/10/05 14:08:54;;;;;;;1.13;0.40;;;;;;;;;;5049096;28;20139;-78
2021/10/05 14:11:20;;;;;;;1.30;0.40;;;;;;;;;;5049480;28;20032;-79
2021/10/05 14:13:45;;;;;;;1.52;0.43;;;;;;;;;;5047786;28;20393;-79
2021/10/05 14:16:10;;;;;;;3.65;0.50;;;;;;;;;;5049401;28;20112;-79
2021/10/05 14:18:35;;;;;;;3.25;0.63;;;;;;;;;;5048543;28;20067;-78
2021/10/05 14:21:01;;;;;;;4.97;0.50;;;;;;;;;;5048746;28;20354;-78
2021/10/05 14:23:27;;;;;;;4.07;0.63;;;;;;;;;;5049455;28;20051;-78
2021/10/05 14:25:52;;;;;;;1.80;0.38;;;;;;;;;;5048940;28;20036;-79
2021/10/05 14:28:18;;;;;;;1.35;0.35;;;;;;;;;;5050161;28;20462;-78
2021/10/05 14:30:44;;;;;;;3.72;0.98;;;;;;;;;;5050953;28;20068;-79
2021/10/05 14:33:09;;;;;;;2.50;0.77;;;;;;;;;;5053192;28;20045;-78
2021/10/05 14:35:39;;;;;;;5.35;0.68;;;;;;;;;;5052893;28;20056;-79